Terminal Aerodrome Forecast
Issued by NWS Wakefield, VA

Home | Current Version | Previous Version | Text Only | Print | Product List | Glossary On
Versions: 1 2 3 4 5 6 7 8 9 10 11 12 13 14 15
000
FTUS41 KAKQ 261843 RRA
TAFSBY
TAF
KSBY 261843Z 2619/2718 29013G20KT P6SM SCT250
     FM262200 29008KT P6SM SKC
     FM270000 VRB03KT P6SM SKC
     FM271500 20007KT P6SM BKN100=

USA.gov is the U.S. government's official web portal to all federal, state and local government web resources and services.